createdAt,value
2022-12-01T00:00:22.859Z,8
2022-12-01T00:01:22.807Z,8
2022-12-01T00:02:22.876Z,8
2022-12-01T00:03:22.926Z,6
2022-12-01T00:04:22.799Z,8
2022-12-01T00:05:22.820Z,9
2022-12-01T00:06:22.806Z,8
2022-12-01T00:07:22.901Z,8
2022-12-01T00:08:22.853Z,8
2022-12-01T00:09:22.813Z,9
2022-12-01T00:10:22.831Z,8
2022-12-01T00:11:22.805Z,10
2022-12-01T00:12:22.801Z,9
2022-12-01T00:13:22.919Z,10
2022-12-01T00:14:22.793Z,11
2022-12-01T00:15:23.061Z,10
2022-12-01T00:16:23.034Z,10
2022-12-01T00:17:22.961Z,10
2022-12-01T00:18:22.992Z,11
2022-12-01T00:19:23.090Z,10
2022-12-01T00:20:23.144Z,11
2022-12-01T00:21:23.042Z,10
2022-12-01T00:22:23.116Z,9
2022-12-01T00:23:23.135Z,10
2022-12-01T00:24:23.233Z,10
2022-12-01T00:25:22.795Z,10
2022-12-01T00:26:22.802Z,10
2022-12-01T00:27:22.826Z,11
2022-12-01T00:28:22.816Z,11
2022-12-01T00:29:22.812Z,11
2022-12-01T00:30:22.844Z,10
2022-12-01T00:31:22.962Z,10
2022-12-01T00:32:22.892Z,11
2022-12-01T00:33:22.824Z,12
2022-12-01T00:34:22.804Z,11
2022-12-01T00:35:22.812Z,12
2022-12-01T00:36:22.808Z,10
2022-12-01T00:37:22.816Z,11
2022-12-01T00:38:22.807Z,12
2022-12-01T00:39:22.857Z,10
2022-12-01T00:40:22.813Z,12
2022-12-01T00:41:22.808Z,11
2022-12-01T00:42:22.808Z,12
2022-12-01T00:43:22.832Z,12
2022-12-01T00:44:22.798Z,11
2022-12-01T00:45:22.804Z,10
2022-12-01T00:46:22.830Z,11
2022-12-01T00:47:22.849Z,12
2022-12-01T00:48:22.816Z,13
2022-12-01T00:49:22.800Z,9
2022-12-01T00:50:22.832Z,12
2022-12-01T00:51:22.794Z,11
2022-12-01T00:52:22.793Z,9
2022-12-01T00:53:22.864Z,10
2022-12-01T00:54:22.926Z,11
2022-12-01T00:55:22.996Z,12
2022-12-01T00:56:22.911Z,12
2022-12-01T00:57:22.852Z,12
2022-12-01T00:58:22.930Z,10
2022-12-01T00:59:22.989Z,11
2022-12-01T01:00:23.026Z,10
2022-12-01T01:01:22.937Z,11
2022-12-01T01:02:22.910Z,12
2022-12-01T01:03:22.853Z,10
2022-12-01T01:04:22.803Z,11
2022-12-01T01:05:22.913Z,11
2022-12-01T01:06:22.792Z,11
2022-12-01T01:07:22.867Z,9
2022-12-01T01:08:22.809Z,10
2022-12-01T01:09:22.812Z,11
2022-12-01T01:10:22.869Z,10
2022-12-01T01:11:22.853Z,8
2022-12-01T01:12:22.806Z,9
2022-12-01T01:13:22.804Z,13
2022-12-01T01:14:22.794Z,10
2022-12-01T01:15:22.804Z,10
2022-12-01T01:16:22.905Z,9
2022-12-01T01:17:22.816Z,10
2022-12-01T01:18:22.852Z,9
2022-12-01T01:19:22.813Z,10
2022-12-01T01:20:22.800Z,9
2022-12-01T01:21:22.802Z,10
2022-12-01T01:22:22.801Z,8
2022-12-01T01:23:22.788Z,9
2022-12-01T01:24:22.816Z,11
2022-12-01T01:25:22.804Z,8
2022-12-01T01:26:22.900Z,9
2022-12-01T01:27:22.841Z,9
2022-12-01T01:28:22.814Z,8
2022-12-01T01:29:22.824Z,10
2022-12-01T01:30:22.878Z,9
2022-12-01T01:31:22.840Z,8
2022-12-01T01:32:22.845Z,8
2022-12-01T01:33:22.866Z,8
2022-12-01T01:34:22.860Z,8
2022-12-01T01:35:22.812Z,10
2022-12-01T01:36:22.806Z,8
2022-12-01T01:37:22.805Z,8
2022-12-01T01:38:22.822Z,9
2022-12-01T01:39:22.808Z,8
2022-12-01T01:40:22.800Z,9
2022-12-01T01:41:22.819Z,9
2022-12-01T01:42:22.840Z,8
2022-12-01T01:43:22.806Z,8
2022-12-01T01:44:22.799Z,11
2022-12-01T01:45:22.800Z,8
2022-12-01T01:46:22.892Z,8
2022-12-01T01:47:22.795Z,9
2022-12-01T01:48:22.804Z,7
2022-12-01T01:49:22.810Z,8
2022-12-01T01:50:22.861Z,9
2022-12-01T01:51:22.789Z,9
2022-12-01T01:52:22.791Z,10
2022-12-01T01:53:22.795Z,8
2022-12-01T01:54:22.775Z,8
2022-12-01T01:55:22.783Z,11
2022-12-01T01:56:22.790Z,9
2022-12-01T01:57:22.842Z,9
2022-12-01T01:58:22.825Z,9
2022-12-01T01:59:22.816Z,10
2022-12-01T02:00:22.900Z,9
2022-12-01T02:01:22.824Z,8
2022-12-01T02:02:22.848Z,8
2022-12-01T02:03:22.866Z,8
2022-12-01T02:04:22.804Z,9
2022-12-01T02:05:22.846Z,8
2022-12-01T02:06:22.838Z,8
2022-12-01T02:07:22.841Z,9
2022-12-01T02:08:22.793Z,11
2022-12-01T02:09:22.803Z,8
2022-12-01T02:10:22.795Z,9
2022-12-01T02:11:22.837Z,11
2022-12-01T02:12:22.872Z,11
2022-12-01T02:13:22.966Z,12
2022-12-01T02:14:22.979Z,9
2022-12-01T02:15:23.060Z,11
2022-12-01T02:16:22.823Z,10
2022-12-01T02:17:22.811Z,12
2022-12-01T02:18:22.795Z,11
2022-12-01T02:19:22.805Z,12
2022-12-01T02:20:22.817Z,13
2022-12-01T02:21:22.846Z,12
2022-12-01T02:22:22.792Z,11
2022-12-01T02:23:22.798Z,14
2022-12-01T02:24:22.795Z,14
2022-12-01T02:25:22.803Z,13
2022-12-01T02:26:22.792Z,14
2022-12-01T02:27:22.797Z,14
2022-12-01T02:28:22.793Z,12
2022-12-01T02:29:22.855Z,17
2022-12-01T02:30:22.797Z,13
2022-12-01T02:31:22.849Z,16
2022-12-01T02:32:22.813Z,14
2022-12-01T02:33:22.875Z,15
2022-12-01T02:34:22.830Z,14
2022-12-01T02:35:22.803Z,13
2022-12-01T02:36:22.797Z,15
2022-12-01T02:37:22.837Z,16
2022-12-01T02:38:22.792Z,14
2022-12-01T02:39:22.795Z,15
2022-12-01T02:40:22.792Z,16
2022-12-01T02:41:22.800Z,16
2022-12-01T02:42:22.800Z,18
2022-12-01T02:43:22.791Z,15
2022-12-01T02:44:22.820Z,16
2022-12-01T02:45:22.837Z,15
2022-12-01T02:46:22.926Z,16
2022-12-01T02:47:22.804Z,17
2022-12-01T02:48:22.799Z,14
2022-12-01T02:49:22.790Z,17
2022-12-01T02:50:22.798Z,15
2022-12-01T02:51:22.786Z,16
2022-12-01T02:52:22.861Z,16
2022-12-01T02:53:22.895Z,17
2022-12-01T02:54:22.792Z,18
2022-12-01T02:55:22.863Z,16
2022-12-01T02:56:22.920Z,15
2022-12-01T02:57:22.919Z,17
2022-12-01T02:58:22.780Z,17
2022-12-01T02:59:22.784Z,18
2022-12-01T03:00:22.837Z,17
2022-12-01T03:01:22.908Z,19
2022-12-01T03:02:22.816Z,18
2022-12-01T03:03:22.799Z,19
2022-12-01T03:04:22.799Z,19
2022-12-01T03:05:22.798Z,18
2022-12-01T03:06:22.808Z,20
2022-12-01T03:07:22.852Z,19
2022-12-01T03:08:22.834Z,19
2022-12-01T03:09:22.832Z,19
2022-12-01T03:10:22.792Z,22
2022-12-01T03:11:22.799Z,21
2022-12-01T03:12:22.796Z,24
2022-12-01T03:13:22.802Z,24
2022-12-01T03:14:22.787Z,22
2022-12-01T03:15:22.799Z,22
2022-12-01T03:16:22.883Z,20
2022-12-01T03:17:22.803Z,23
2022-12-01T03:18:22.781Z,24
2022-12-01T03:19:22.801Z,23
2022-12-01T03:20:22.797Z,25
2022-12-01T03:21:22.791Z,25
2022-12-01T03:22:22.794Z,24
2022-12-01T03:23:22.793Z,23
2022-12-01T03:24:22.820Z,26
2022-12-01T03:25:22.785Z,24
2022-12-01T03:26:22.784Z,24
2022-12-01T03:27:22.791Z,23
2022-12-01T03:28:23.038Z,21
2022-12-01T03:29:22.779Z,24
2022-12-01T03:30:22.785Z,25
2022-12-01T03:31:22.900Z,26
2022-12-01T03:32:22.840Z,25
2022-12-01T03:33:22.799Z,26
2022-12-01T03:34:22.786Z,25
2022-12-01T03:35:22.800Z,23
2022-12-01T03:36:22.817Z,25
2022-12-01T03:37:22.800Z,26
2022-12-01T03:38:22.794Z,27
2022-12-01T03:39:22.825Z,28
2022-12-01T03:40:22.831Z,27
2022-12-01T03:41:22.791Z,24
2022-12-01T03:42:22.793Z,27
2022-12-01T03:43:22.794Z,25
2022-12-01T03:44:22.787Z,26
2022-12-01T03:45:22.799Z,24
2022-12-01T03:46:22.833Z,24
2022-12-01T03:47:22.843Z,27
2022-12-01T03:48:22.838Z,27
2022-12-01T03:49:22.789Z,27
2022-12-01T03:50:22.807Z,27
2022-12-01T03:51:22.779Z,25
2022-12-01T03:52:22.796Z,29
2022-12-01T03:53:22.795Z,28
2022-12-01T03:54:22.792Z,25
2022-12-01T03:55:22.863Z,27
2022-12-01T03:56:22.835Z,26
2022-12-01T03:57:22.783Z,24
2022-12-01T03:58:22.849Z,28
2022-12-01T03:59:22.791Z,25
2022-12-01T04:00:22.798Z,23
2022-12-01T04:01:22.870Z,26
2022-12-01T04:02:22.789Z,24
2022-12-01T04:03:22.836Z,25
2022-12-01T04:04:22.838Z,26
2022-12-01T04:05:25.336Z,31
2022-12-01T04:06:22.796Z,26
2022-12-01T04:07:22.883Z,26
2022-12-01T04:08:22.796Z,27
2022-12-01T04:09:22.791Z,28
2022-12-01T04:10:22.795Z,25
2022-12-01T04:11:23.028Z,26
2022-12-01T04:12:22.831Z,24
2022-12-01T04:13:22.790Z,26
2022-12-01T04:14:22.782Z,24
2022-12-01T04:15:22.785Z,25
2022-12-01T04:16:22.848Z,23
2022-12-01T04:17:22.796Z,23
2022-12-01T04:18:22.782Z,23
2022-12-01T04:19:22.835Z,25
2022-12-01T04:20:22.829Z,24
2022-12-01T04:21:22.785Z,19
2022-12-01T04:22:22.779Z,24
2022-12-01T04:23:22.801Z,22
2022-12-01T04:24:22.774Z,22
2022-12-01T04:25:22.778Z,18
2022-12-01T04:26:22.803Z,23
2022-12-01T04:27:22.844Z,22
2022-12-01T04:28:22.795Z,21
2022-12-01T04:29:22.788Z,21
2022-12-01T04:30:22.782Z,22
2022-12-01T04:31:22.917Z,25
2022-12-01T04:32:22.790Z,23
2022-12-01T04:33:22.810Z,21
2022-12-01T04:34:22.807Z,24
2022-12-01T04:35:22.826Z,23
2022-12-01T04:36:22.792Z,24
2022-12-01T04:37:22.792Z,23
2022-12-01T04:38:26.175Z,22
2022-12-01T04:39:22.883Z,23
2022-12-01T04:40:22.782Z,22
2022-12-01T04:41:22.814Z,23
2022-12-01T04:42:22.845Z,19
2022-12-01T04:43:22.880Z,23
2022-12-01T04:44:22.791Z,20
2022-12-01T04:45:22.781Z,23
2022-12-01T04:46:22.837Z,21
2022-12-01T04:47:22.787Z,20
2022-12-01T04:48:22.785Z,21
2022-12-01T04:49:22.809Z,22
2022-12-01T04:50:22.833Z,20
2022-12-01T04:51:22.797Z,22
2022-12-01T04:52:22.785Z,19
2022-12-01T04:53:22.821Z,25
2022-12-01T04:54:22.767Z,22
2022-12-01T04:55:23.142Z,26
2022-12-01T04:56:23.123Z,24
2022-12-01T04:57:22.786Z,25
2022-12-01T04:58:22.828Z,24
2022-12-01T04:59:22.810Z,21
2022-12-01T05:00:22.817Z,24
2022-12-01T05:01:22.866Z,25
2022-12-01T05:02:22.859Z,25
2022-12-01T05:03:22.780Z,25
2022-12-01T05:04:22.787Z,26
2022-12-01T05:05:22.796Z,27
2022-12-01T05:06:22.835Z,25
2022-12-01T05:07:22.877Z,22
2022-12-01T05:08:22.779Z,23
2022-12-01T05:09:22.831Z,28
2022-12-01T05:10:22.784Z,30
2022-12-01T05:11:22.761Z,25
2022-12-01T05:12:22.798Z,24
2022-12-01T05:13:22.783Z,25
2022-12-01T05:14:22.826Z,27
2022-12-01T05:15:22.782Z,25
2022-12-01T05:16:22.819Z,32
2022-12-01T05:17:22.791Z,26
2022-12-01T05:18:22.859Z,27
2022-12-01T05:19:22.778Z,28
2022-12-01T05:20:22.791Z,24
2022-12-01T05:21:22.769Z,30
2022-12-01T05:22:36.681Z,28
2022-12-01T05:23:22.803Z,30
2022-12-01T05:24:22.774Z,29
2022-12-01T05:25:22.774Z,25
2022-12-01T05:26:22.868Z,32
2022-12-01T05:27:22.786Z,26
2022-12-01T05:28:22.784Z,28
2022-12-01T05:29:22.818Z,29
2022-12-01T05:30:27.086Z,27
2022-12-01T05:31:22.825Z,30
2022-12-01T05:32:22.785Z,29
2022-12-01T05:33:22.785Z,30
2022-12-01T05:34:22.769Z,30
2022-12-01T05:35:22.777Z,27
2022-12-01T05:36:22.775Z,31
2022-12-01T05:37:22.830Z,29
2022-12-01T05:38:22.823Z,30
2022-12-01T05:39:22.771Z,31
2022-12-01T05:40:22.808Z,27
2022-12-01T05:41:22.775Z,30
2022-12-01T05:42:22.763Z,25
2022-12-01T05:43:28.673Z,31
2022-12-01T05:44:22.773Z,28
2022-12-01T05:45:22.828Z,28
2022-12-01T05:46:22.849Z,29
2022-12-01T05:47:22.780Z,29
2022-12-01T05:48:22.899Z,27
2022-12-01T05:49:22.781Z,28
2022-12-01T05:50:22.778Z,30
2022-12-01T05:51:22.818Z,31
2022-12-01T05:52:22.794Z,33
2022-12-01T05:53:22.845Z,31
2022-12-01T05:54:22.813Z,29
2022-12-01T05:55:22.777Z,31
2022-12-01T05:56:22.776Z,27
2022-12-01T05:57:22.781Z,27
2022-12-01T05:58:22.794Z,30
2022-12-01T05:59:22.802Z,28
2022-12-01T06:00:22.780Z,28
2022-12-01T06:01:22.825Z,33
2022-12-01T06:02:22.841Z,32
2022-12-01T06:03:22.773Z,30
2022-12-01T06:04:22.877Z,32
2022-12-01T06:05:22.783Z,33
2022-12-01T06:06:22.786Z,31
2022-12-01T06:07:22.812Z,28
2022-12-01T06:08:23.033Z,30
2022-12-01T06:09:22.823Z,33
2022-12-01T06:10:22.775Z,32
2022-12-01T06:11:23.031Z,29
2022-12-01T06:12:23.066Z,33
2022-12-01T06:13:23.116Z,35
2022-12-01T06:14:23.184Z,32
2022-12-01T06:15:22.779Z,28
2022-12-01T06:16:22.844Z,32
2022-12-01T06:17:22.816Z,34
2022-12-01T06:18:22.778Z,34
2022-12-01T06:19:22.836Z,29
2022-12-01T06:20:22.767Z,35
2022-12-01T06:21:22.775Z,34
2022-12-01T06:22:22.775Z,35
2022-12-01T06:23:27.591Z,34
2022-12-01T06:24:22.823Z,37
2022-12-01T06:25:22.817Z,37
2022-12-01T06:26:22.774Z,37
2022-12-01T06:27:22.809Z,38
2022-12-01T06:28:22.782Z,40
2022-12-01T06:29:22.771Z,39
2022-12-01T06:30:22.778Z,39
2022-12-01T06:31:22.812Z,38
2022-12-01T06:32:22.839Z,37
2022-12-01T06:33:22.823Z,36
2022-12-01T06:34:22.765Z,41
2022-12-01T06:35:22.771Z,40
2022-12-01T06:36:22.789Z,37
2022-12-01T06:37:22.755Z,42
2022-12-01T06:38:22.786Z,38
2022-12-01T06:39:22.788Z,38
2022-12-01T06:40:22.849Z,34
2022-12-01T06:41:22.805Z,43
2022-12-01T06:42:22.864Z,33
2022-12-01T06:43:22.931Z,35
2022-12-01T06:44:22.766Z,39
2022-12-01T06:45:22.775Z,38
2022-12-01T06:46:22.852Z,39
2022-12-01T06:47:22.784Z,40
2022-12-01T06:48:22.816Z,44
2022-12-01T06:49:22.770Z,39
2022-12-01T06:50:22.775Z,42
2022-12-01T06:51:22.785Z,38
2022-12-01T06:52:22.796Z,38
2022-12-01T06:53:22.775Z,37
2022-12-01T06:54:22.774Z,37
2022-12-01T06:55:22.793Z,34
2022-12-01T06:56:22.819Z,39
2022-12-01T06:57:22.773Z,37
2022-12-01T06:58:22.774Z,35
2022-12-01T06:59:22.784Z,31
2022-12-01T07:00:22.820Z,36
2022-12-01T07:01:22.857Z,40
2022-12-01T07:02:22.898Z,39
2022-12-01T07:03:22.791Z,35
2022-12-01T07:04:22.822Z,35
2022-12-01T07:05:22.753Z,31
2022-12-01T07:06:22.790Z,32
2022-12-01T07:07:22.809Z,32
2022-12-01T07:08:22.788Z,34
2022-12-01T07:09:22.791Z,33
2022-12-01T07:10:22.765Z,31
2022-12-01T07:11:22.858Z,29
2022-12-01T07:12:22.821Z,33
2022-12-01T07:13:22.812Z,27
2022-12-01T07:14:22.814Z,28
2022-12-01T07:15:22.765Z,29
2022-12-01T07:16:22.833Z,33
2022-12-01T07:17:22.770Z,31
2022-12-01T07:18:22.785Z,30
2022-12-01T07:19:22.835Z,30
2022-12-01T07:20:22.799Z,31
2022-12-01T07:21:22.767Z,29
2022-12-01T07:22:22.779Z,28
2022-12-01T07:23:22.763Z,29
2022-12-01T07:24:22.768Z,30
2022-12-01T07:25:22.838Z,26
2022-12-01T07:26:22.781Z,28
2022-12-01T07:27:22.827Z,33
2022-12-01T07:28:22.821Z,29
2022-12-01T07:29:22.759Z,29
2022-12-01T07:30:28.096Z,26
2022-12-01T07:31:22.808Z,26
2022-12-01T07:32:22.773Z,26
2022-12-01T07:33:22.765Z,27
2022-12-01T07:34:22.762Z,28
2022-12-01T07:35:22.807Z,24
2022-12-01T07:36:22.775Z,23
2022-12-01T07:37:22.768Z,31
2022-12-01T07:38:22.778Z,26
2022-12-01T07:39:22.769Z,24
2022-12-01T07:40:22.772Z,24
2022-12-01T07:41:22.774Z,24
2022-12-01T07:42:22.769Z,28
2022-12-01T07:43:22.817Z,24
2022-12-01T07:44:22.792Z,26
2022-12-01T07:45:22.777Z,25
2022-12-01T07:46:24.030Z,25
2022-12-01T07:47:22.787Z,27
2022-12-01T07:48:22.767Z,25
2022-12-01T07:49:22.788Z,23
2022-12-01T07:50:22.773Z,25
2022-12-01T07:51:22.931Z,24
2022-12-01T07:52:22.902Z,26
2022-12-01T07:53:22.855Z,23
2022-12-01T07:54:22.768Z,24
2022-12-01T07:55:22.769Z,23
2022-12-01T07:56:22.810Z,24
2022-12-01T07:57:22.801Z,22
2022-12-01T07:58:22.806Z,28
2022-12-01T07:59:22.866Z,26
2022-12-01T08:00:22.773Z,27
2022-12-01T08:01:22.855Z,25
2022-12-01T08:02:22.870Z,24
2022-12-01T08:03:22.761Z,25
2022-12-01T08:04:22.800Z,24
2022-12-01T08:05:22.781Z,25
2022-12-01T08:06:22.820Z,25
2022-12-01T08:07:26.073Z,24
2022-12-01T08:08:22.805Z,22
2022-12-01T08:09:22.794Z,23
2022-12-01T08:10:22.774Z,24
2022-12-01T08:11:22.787Z,24
2022-12-01T08:12:22.862Z,23
2022-12-01T08:13:23.064Z,24
2022-12-01T08:14:22.827Z,21
2022-12-01T08:15:22.908Z,26
2022-12-01T08:16:22.806Z,21
2022-12-01T08:17:22.776Z,24
2022-12-01T08:18:22.779Z,22
2022-12-01T08:19:22.764Z,27
2022-12-01T08:20:24.196Z,23
2022-12-01T08:21:22.819Z,27
2022-12-01T08:22:22.812Z,26
2022-12-01T08:23:22.795Z,24
2022-12-01T08:24:22.779Z,23
2022-12-01T08:25:22.776Z,23
2022-12-01T08:26:22.769Z,24
2022-12-01T08:27:22.809Z,24
2022-12-01T08:28:22.832Z,25
2022-12-01T08:29:22.814Z,23
2022-12-01T08:30:22.815Z,24
2022-12-01T08:31:22.873Z,26
2022-12-01T08:32:22.772Z,24
2022-12-01T08:33:22.766Z,29
2022-12-01T08:34:22.847Z,26
2022-12-01T08:35:22.766Z,25
2022-12-01T08:36:22.823Z,23
2022-12-01T08:37:22.812Z,25
2022-12-01T08:38:22.808Z,26
2022-12-01T08:39:22.801Z,25
2022-12-01T08:40:22.917Z,27
2022-12-01T08:41:22.793Z,27
2022-12-01T08:42:22.848Z,25
2022-12-01T08:43:49.578Z,24
2022-12-01T08:44:23.108Z,22
2022-12-01T08:45:22.831Z,29
2022-12-01T08:46:22.933Z,23
2022-12-01T08:47:22.802Z,27
2022-12-01T08:48:22.820Z,23
2022-12-01T08:49:22.769Z,26
2022-12-01T08:50:22.782Z,24
2022-12-01T08:51:22.766Z,25
2022-12-01T08:52:22.773Z,25
2022-12-01T08:53:22.855Z,27
2022-12-01T08:54:22.823Z,26
2022-12-01T08:55:22.817Z,26
2022-12-01T08:56:22.807Z,24
2022-12-01T08:57:22.778Z,25
2022-12-01T08:58:22.775Z,26
2022-12-01T08:59:22.796Z,26
2022-12-01T09:00:22.853Z,26
2022-12-01T09:01:22.937Z,24
2022-12-01T09:02:22.862Z,25
2022-12-01T09:03:22.877Z,23
2022-12-01T09:04:22.809Z,26
2022-12-01T09:05:22.775Z,25
2022-12-01T09:06:22.805Z,24
2022-12-01T09:07:26.319Z,22
2022-12-01T09:08:22.797Z,21
2022-12-01T09:09:22.862Z,23
2022-12-01T09:10:22.872Z,23
2022-12-01T09:11:22.811Z,24
2022-12-01T09:12:22.791Z,25
2022-12-01T09:13:22.823Z,22
2022-12-01T09:14:22.764Z,22
2022-12-01T09:15:22.780Z,22
2022-12-01T09:16:22.865Z,25
2022-12-01T09:17:22.882Z,23
2022-12-01T09:18:22.764Z,21
2022-12-01T09:19:24.917Z,20
2022-12-01T09:20:22.802Z,23
2022-12-01T09:21:22.769Z,22
2022-12-01T09:22:22.783Z,20
2022-12-01T09:23:22.757Z,23
2022-12-01T09:24:22.768Z,21
2022-12-01T09:25:22.844Z,20
2022-12-01T09:26:22.764Z,23
2022-12-01T09:27:22.800Z,20
2022-12-01T09:28:22.804Z,21
2022-12-01T09:29:22.787Z,22
2022-12-01T09:30:22.762Z,23
2022-12-01T09:31:22.781Z,19
2022-12-01T09:32:22.768Z,24
2022-12-01T09:33:23.065Z,21
2022-12-01T09:34:22.769Z,23
2022-12-01T09:35:23.706Z,21
2022-12-01T09:36:22.759Z,21
2022-12-01T09:37:22.791Z,20
2022-12-01T09:38:22.768Z,22
2022-12-01T09:39:22.803Z,19
2022-12-01T09:40:22.822Z,20
2022-12-01T09:41:22.841Z,20
2022-12-01T09:42:22.753Z,19
2022-12-01T09:43:22.795Z,18
2022-12-01T09:44:22.804Z,20
2022-12-01T09:45:22.769Z,18
2022-12-01T09:46:22.805Z,19
2022-12-01T09:47:22.765Z,21
2022-12-01T09:48:22.839Z,19
2022-12-01T09:49:22.886Z,18
2022-12-01T09:50:22.751Z,17
2022-12-01T09:51:22.794Z,20
2022-12-01T09:52:22.773Z,18
2022-12-01T09:53:22.854Z,19
2022-12-01T09:54:22.754Z,17
2022-12-01T09:55:22.760Z,16
2022-12-01T09:56:22.837Z,16
2022-12-01T09:57:22.812Z,16
2022-12-01T09:58:22.755Z,17
2022-12-01T09:59:23.014Z,16
2022-12-01T10:00:22.897Z,13
2022-12-01T10:01:27.123Z,13
2022-12-01T10:02:23.001Z,13
2022-12-01T10:03:22.804Z,14
2022-12-01T10:04:22.845Z,12
2022-12-01T10:05:22.889Z,12
2022-12-01T10:06:27.665Z,12
2022-12-01T10:07:22.789Z,12
2022-12-01T10:08:26.972Z,13
2022-12-01T10:09:22.740Z,13
2022-12-01T10:10:22.789Z,14
2022-12-01T10:11:22.813Z,14
2022-12-01T10:12:22.849Z,13
2022-12-01T10:13:22.838Z,15
2022-12-01T10:14:22.767Z,14
2022-12-01T10:15:22.786Z,15
2022-12-01T10:16:22.800Z,15
2022-12-01T10:17:22.760Z,13
2022-12-01T10:18:22.765Z,14
2022-12-01T10:19:22.828Z,14
2022-12-01T10:20:22.911Z,15
2022-12-01T10:21:22.805Z,15
2022-12-01T10:22:22.773Z,15
2022-12-01T10:23:22.814Z,14
2022-12-01T10:24:22.796Z,14
2022-12-01T10:25:22.783Z,16
2022-12-01T10:26:22.763Z,12
2022-12-01T10:27:22.779Z,14
2022-12-01T10:28:22.863Z,13
2022-12-01T10:29:22.812Z,16
2022-12-01T10:30:22.844Z,17
2022-12-01T10:31:22.886Z,15
2022-12-01T10:32:22.842Z,15
2022-12-01T10:33:22.807Z,15
2022-12-01T10:34:22.765Z,14
2022-12-01T10:35:22.766Z,15
2022-12-01T10:36:22.903Z,17
2022-12-01T10:37:22.790Z,15
2022-12-01T10:38:22.762Z,18
2022-12-01T10:39:22.772Z,17
2022-12-01T10:40:22.870Z,17
2022-12-01T10:41:22.756Z,15
2022-12-01T10:42:22.778Z,16
2022-12-01T10:43:22.812Z,15
2022-12-01T10:44:22.843Z,13
2022-12-01T10:45:22.792Z,14
2022-12-01T10:46:22.807Z,13
2022-12-01T10:47:22.768Z,15
2022-12-01T10:48:22.762Z,13
2022-12-01T10:49:22.755Z,14
2022-12-01T10:50:22.799Z,12
2022-12-01T10:51:22.818Z,14
2022-12-01T10:52:22.837Z,12
2022-12-01T10:53:22.789Z,13
2022-12-01T10:54:22.753Z,14
2022-12-01T10:55:22.808Z,13
2022-12-01T10:56:22.795Z,13
2022-12-01T10:57:22.768Z,14
2022-12-01T10:58:22.789Z,13
2022-12-01T10:59:22.816Z,12
2022-12-01T11:00:57.575Z,12
2022-12-01T11:01:22.914Z,13
2022-12-01T11:02:22.947Z,13
2022-12-01T11:03:23.017Z,12
2022-12-01T11:04:22.798Z,14
2022-12-01T11:05:22.760Z,12
2022-12-01T11:06:22.763Z,11
2022-12-01T11:07:22.896Z,12
2022-12-01T11:08:22.839Z,12
2022-12-01T11:09:26.252Z,12
2022-12-01T11:10:22.772Z,12
2022-12-01T11:11:22.804Z,14
2022-12-01T11:12:22.799Z,13
2022-12-01T11:13:22.775Z,11
2022-12-01T11:14:22.764Z,12
2022-12-01T11:15:22.809Z,12
2022-12-01T11:16:22.862Z,13
2022-12-01T11:17:22.800Z,13
2022-12-01T11:18:22.769Z,12
2022-12-01T11:19:26.901Z,12
2022-12-01T11:20:22.832Z,13
2022-12-01T11:21:22.799Z,12
2022-12-01T11:22:22.764Z,14
2022-12-01T11:23:22.799Z,15
2022-12-01T11:24:22.793Z,14
2022-12-01T11:25:22.802Z,14
2022-12-01T11:26:22.769Z,14
2022-12-01T11:27:22.786Z,14
2022-12-01T11:28:22.802Z,14
2022-12-01T11:29:22.758Z,14
2022-12-01T11:30:22.782Z,14
2022-12-01T11:31:26.040Z,15
2022-12-01T11:32:22.842Z,14
2022-12-01T11:33:22.790Z,14
2022-12-01T11:34:22.788Z,15
2022-12-01T11:35:22.795Z,14
2022-12-01T11:36:22.757Z,15
2022-12-01T11:37:22.756Z,14
2022-12-01T11:38:30.493Z,16
2022-12-01T11:39:22.807Z,16
2022-12-01T11:40:22.757Z,18
2022-12-01T11:41:22.799Z,16
2022-12-01T11:42:22.775Z,17
2022-12-01T11:43:22.829Z,16
2022-12-01T11:44:49.690Z,17
2022-12-01T11:45:22.777Z,15
2022-12-01T11:46:22.864Z,17
2022-12-01T11:47:24.340Z,16
2022-12-01T11:48:22.807Z,16
2022-12-01T11:49:22.772Z,14
2022-12-01T11:50:22.761Z,17
2022-12-01T11:51:22.769Z,16
2022-12-01T11:52:22.825Z,15
2022-12-01T11:53:22.764Z,15
2022-12-01T11:54:22.968Z,15
2022-12-01T11:55:22.793Z,15
2022-12-01T11:56:22.762Z,17
2022-12-01T11:57:34.312Z,15
2022-12-01T11:58:22.829Z,16
2022-12-01T11:59:22.755Z,15
2022-12-01T12:00:22.798Z,16
2022-12-01T12:01:22.762Z,16
2022-12-01T12:02:22.882Z,16
2022-12-01T12:03:22.856Z,18
2022-12-01T12:04:22.790Z,16
2022-12-01T12:05:22.803Z,19
2022-12-01T12:06:50.717Z,17
2022-12-01T12:07:22.844Z,16
2022-12-01T12:08:22.899Z,17
2022-12-01T12:09:22.806Z,16
2022-12-01T12:10:22.877Z,15
2022-12-01T12:11:22.817Z,18
2022-12-01T12:12:22.832Z,19
2022-12-01T12:13:22.834Z,15
2022-12-01T12:14:22.764Z,18
2022-12-01T12:15:22.799Z,20
2022-12-01T12:16:23.811Z,19
2022-12-01T12:17:22.778Z,15
2022-12-01T12:18:22.797Z,19
2022-12-01T12:19:33.587Z,17
2022-12-01T12:20:22.791Z,22
2022-12-01T12:21:22.781Z,21
2022-12-01T12:22:22.758Z,21
2022-12-01T12:23:22.826Z,20
2022-12-01T12:24:22.823Z,21
2022-12-01T12:25:22.762Z,20
2022-12-01T12:26:22.805Z,20
2022-12-01T12:27:22.816Z,19
2022-12-01T12:28:22.851Z,18
2022-12-01T12:29:22.833Z,24
2022-12-01T12:30:22.788Z,21
2022-12-01T12:31:22.858Z,20
2022-12-01T12:32:22.802Z,21
2022-12-01T12:33:22.778Z,20
2022-12-01T12:34:22.800Z,23
2022-12-01T12:35:22.768Z,19
2022-12-01T12:36:22.771Z,22
2022-12-01T12:37:23.832Z,20
2022-12-01T12:38:22.793Z,22
2022-12-01T12:39:22.804Z,20
2022-12-01T12:40:22.814Z,21
2022-12-01T12:41:22.874Z,19
2022-12-01T12:42:22.818Z,21
2022-12-01T12:43:22.797Z,22
2022-12-01T12:44:22.825Z,21
2022-12-01T12:45:22.828Z,23
2022-12-01T12:46:22.804Z,25
2022-12-01T12:47:22.805Z,21
2022-12-01T12:48:22.790Z,22
2022-12-01T12:49:22.793Z,24
2022-12-01T12:50:22.817Z,26
2022-12-01T12:51:22.798Z,24
2022-12-01T12:52:22.775Z,24
2022-12-01T12:53:22.808Z,25
2022-12-01T12:54:22.809Z,26
2022-12-01T12:55:22.796Z,28
2022-12-01T12:56:22.792Z,26
2022-12-01T12:57:22.823Z,27
2022-12-01T12:58:22.805Z,27
2022-12-01T12:59:22.800Z,29
2022-12-01T13:00:22.831Z,26
2022-12-01T13:01:22.845Z,29
2022-12-01T13:02:22.825Z,28
2022-12-01T13:03:22.814Z,31
2022-12-01T13:04:22.825Z,28
2022-12-01T13:05:22.858Z,31
2022-12-01T13:06:22.819Z,27
2022-12-01T13:07:22.786Z,30
2022-12-01T13:08:22.764Z,31
2022-12-01T13:09:22.796Z,28
2022-12-01T13:10:22.779Z,31
2022-12-01T13:11:22.847Z,33
2022-12-01T13:12:22.746Z,31
2022-12-01T13:13:22.826Z,35
2022-12-01T13:14:22.786Z,35
2022-12-01T13:15:22.772Z,35
2022-12-01T13:16:22.861Z,33
2022-12-01T13:17:22.779Z,35
2022-12-01T13:18:22.770Z,34
2022-12-01T13:19:22.841Z,34
2022-12-01T13:20:22.763Z,32
2022-12-01T13:21:22.881Z,33
2022-12-01T13:22:22.806Z,34
2022-12-01T13:23:22.810Z,36
2022-12-01T13:24:23.539Z,33
2022-12-01T13:25:22.817Z,31
2022-12-01T13:26:22.752Z,36
2022-12-01T13:27:22.762Z,35
2022-12-01T13:28:22.763Z,34
2022-12-01T13:29:22.815Z,32
2022-12-01T13:30:22.778Z,38
2022-12-01T13:31:22.826Z,36
2022-12-01T13:32:22.754Z,32
2022-12-01T13:33:22.792Z,32
2022-12-01T13:34:22.768Z,31
2022-12-01T13:35:22.838Z,37
2022-12-01T13:36:45.811Z,36
2022-12-01T13:37:22.914Z,34
2022-12-01T13:38:22.769Z,32
2022-12-01T13:39:22.763Z,35
2022-12-01T13:40:22.768Z,30
2022-12-01T13:41:22.771Z,32
2022-12-01T13:42:22.755Z,32
2022-12-01T13:43:22.950Z,35
2022-12-01T13:44:22.837Z,35
2022-12-01T13:45:22.815Z,33
2022-12-01T13:46:22.822Z,33
2022-12-01T13:47:22.756Z,34
2022-12-01T13:48:22.806Z,34
2022-12-01T13:49:22.764Z,35
2022-12-01T13:50:23.007Z,36
2022-12-01T13:51:23.065Z,31
2022-12-01T13:52:22.871Z,31
2022-12-01T13:53:22.829Z,35
2022-12-01T13:54:22.767Z,35
2022-12-01T13:55:22.769Z,36
2022-12-01T13:56:22.797Z,37
2022-12-01T13:57:22.749Z,38
2022-12-01T13:58:22.770Z,34
2022-12-01T13:59:22.775Z,32
2022-12-01T14:00:22.874Z,34
2022-12-01T14:01:23.346Z,35
2022-12-01T14:02:23.132Z,32
2022-12-01T14:03:22.850Z,33
2022-12-01T14:04:22.820Z,34
2022-12-01T14:05:22.805Z,31
2022-12-01T14:06:22.782Z,30
2022-12-01T14:07:22.832Z,33
2022-12-01T14:08:23.648Z,32
2022-12-01T14:09:22.830Z,34
2022-12-01T14:10:22.774Z,31
2022-12-01T14:11:22.769Z,32
2022-12-01T14:12:22.812Z,33
2022-12-01T14:13:22.820Z,32
2022-12-01T14:14:26.160Z,31
2022-12-01T14:15:22.822Z,34
2022-12-01T14:16:22.916Z,33
2022-12-01T14:17:22.808Z,34